sensor_id;sensor_type;location;lat;lon;timestamp;pressure;altitude;pressure_sealevel;temperature;humidity
59289;BME280;45056;47.602;9.886;2023-05-23T00:01:11;92839.66;;;18.27;55.04
59289;BME280;45056;47.602;9.886;2023-05-23T00:03:40;92835.13;;;18.24;55.03
59289;BME280;45056;47.602;9.886;2023-05-23T00:06:08;92829.38;;;18.22;55.01
59289;BME280;45056;47.602;9.886;2023-05-23T00:08:36;92840.63;;;18.24;54.78
59289;BME280;45056;47.602;9.886;2023-05-23T00:11:04;92839.66;;;18.27;54.70
59289;BME280;45056;47.602;9.886;2023-05-23T00:13:32;92837.41;;;18.31;54.95
59289;BME280;45056;47.602;9.886;2023-05-23T00:16:01;92835.69;;;18.34;55.09
59289;BME280;45056;47.602;9.886;2023-05-23T00:18:31;92840.94;;;18.38;54.93
59289;BME280;45056;47.602;9.886;2023-05-23T00:20:59;92838.94;;;18.38;55.12
59289;BME280;45056;47.602;9.886;2023-05-23T00:23:28;92839.97;;;18.41;55.31
59289;BME280;45056;47.602;9.886;2023-05-23T00:25:56;92842.97;;;18.43;55.44
59289;BME280;45056;47.602;9.886;2023-05-23T00:28:24;92840.47;;;18.45;55.41
59289;BME280;45056;47.602;9.886;2023-05-23T00:30:52;92838.47;;;18.45;55.41
59289;BME280;45056;47.602;9.886;2023-05-23T00:33:20;92828.69;;;18.44;55.28
59289;BME280;45056;47.602;9.886;2023-05-23T00:35:50;92833.47;;;18.44;55.34
59289;BME280;45056;47.602;9.886;2023-05-23T00:38:18;92825.94;;;18.44;55.43
59289;BME280;45056;47.602;9.886;2023-05-23T00:40:46;92834.47;;;18.46;55.50
59289;BME280;45056;47.602;9.886;2023-05-23T00:43:14;92829.47;;;18.45;55.61
59289;BME280;45056;47.602;9.886;2023-05-23T00:45:42;92827.19;;;18.43;55.70
59289;BME280;45056;47.602;9.886;2023-05-23T00:48:10;92825.19;;;18.44;55.63
59289;BME280;45056;47.602;9.886;2023-05-23T00:50:39;92833.22;;;18.42;55.72
59289;BME280;45056;47.602;9.886;2023-05-23T00:53:09;92830.16;;;18.40;56.19
59289;BME280;45056;47.602;9.886;2023-05-23T00:55:37;92833.44;;;18.38;56.37
59289;BME280;45056;47.602;9.886;2023-05-23T00:58:06;92832.91;;;18.40;56.41
59289;BME280;45056;47.602;9.886;2023-05-23T01:00:34;92832.91;;;18.40;56.21
59289;BME280;45056;47.602;9.886;2023-05-23T01:03:04;92830.16;;;18.40;56.16
59289;BME280;45056;47.602;9.886;2023-05-23T01:05:32;92834.94;;;18.39;56.19
59289;BME280;45056;47.602;9.886;2023-05-23T01:08:00;92835.69;;;18.40;56.30
59289;BME280;45056;47.602;9.886;2023-05-23T01:10:30;92834.94;;;18.39;56.28
59289;BME280;45056;47.602;9.886;2023-05-23T01:13:12;92839.69;;;18.39;56.36
59289;BME280;45056;47.602;9.886;2023-05-23T01:15:54;92847.94;;;18.39;56.26
59289;BME280;45056;47.602;9.886;2023-05-23T01:18:35;92847.47;;;18.40;56.41
59289;BME280;45056;47.602;9.886;2023-05-23T01:21:11;92841.47;;;18.42;56.27
59289;BME280;45056;47.602;9.886;2023-05-23T01:24:12;92844.22;;;18.42;56.33
59289;BME280;45056;47.602;9.886;2023-05-23T01:27:26;92843.72;;;18.43;56.41
59289;BME280;45056;47.602;9.886;2023-05-23T01:30:10;92844.72;;;18.46;56.46
59289;BME280;45056;47.602;9.886;2023-05-23T01:32:42;92849.47;;;18.45;56.86
59289;BME280;45056;47.602;9.886;2023-05-23T01:35:11;92839.72;;;18.44;56.88
59289;BME280;45056;47.602;9.886;2023-05-23T01:37:40;92840.97;;;18.43;57.17
59289;BME280;45056;47.602;9.886;2023-05-23T01:40:09;92844.22;;;18.42;57.14
59289;BME280;45056;47.602;9.886;2023-05-23T01:42:39;92841.47;;;18.42;56.86
59289;BME280;45056;47.602;9.886;2023-05-23T01:45:09;92838.44;;;18.40;57.06
59289;BME280;45056;47.602;9.886;2023-05-23T01:47:39;92839.94;;;18.35;57.12
59289;BME280;45056;47.602;9.886;2023-05-23T01:50:09;92844.41;;;18.33;57.14
59289;BME280;45056;47.602;9.886;2023-05-23T01:52:39;92842.91;;;18.31;57.14
59289;BME280;45056;47.602;9.886;2023-05-23T01:55:09;92844.16;;;18.30;57.39
59289;BME280;45056;47.602;9.886;2023-05-23T01:57:39;92848.94;;;18.30;57.24
59289;BME280;45056;47.602;9.886;2023-05-23T02:00:08;92849.16;;;18.26;57.32
59289;BME280;45056;47.602;9.886;2023-05-23T02:02:37;92850.16;;;18.23;57.42
59289;BME280;45056;47.602;9.886;2023-05-23T02:05:06;92852.63;;;18.21;57.53
59289;BME280;45056;47.602;9.886;2023-05-23T02:07:35;92853.13;;;18.20;57.46
59289;BME280;45056;47.602;9.886;2023-05-23T02:10:06;92853.63;;;18.18;57.52
59289;BME280;45056;47.602;9.886;2023-05-23T02:12:35;92853.38;;;18.16;57.79
59289;BME280;45056;47.602;9.886;2023-05-23T02:15:05;92852.34;;;18.13;57.69
59289;BME280;45056;47.602;9.886;2023-05-23T02:17:34;92851.34;;;18.11;58.04
59289;BME280;45056;47.602;9.886;2023-05-23T02:20:02;92855.06;;;18.08;58.03
59289;BME280;45056;47.602;9.886;2023-05-23T02:22:32;92861.06;;;18.06;58.25
59289;BME280;45056;47.602;9.886;2023-05-23T02:25:00;92858.31;;;18.06;58.21
59289;BME280;45056;47.602;9.886;2023-05-23T02:27:28;92852.03;;;18.06;58.54
59289;BME280;45056;47.602;9.886;2023-05-23T02:29:57;92859.06;;;18.07;58.56
59289;BME280;45056;47.602;9.886;2023-05-23T02:32:26;92853.56;;;18.07;58.43
59289;BME280;45056;47.602;9.886;2023-05-23T02:34:55;92853.56;;;18.07;58.49
59289;BME280;45056;47.602;9.886;2023-05-23T02:37:23;92854.53;;;18.03;58.57
59289;BME280;45056;47.602;9.886;2023-05-23T02:39:51;92856.75;;;17.99;58.79
59289;BME280;45056;47.602;9.886;2023-05-23T02:42:19;92859.22;;;17.97;58.76
59289;BME280;45056;47.602;9.886;2023-05-23T02:44:47;92851.19;;;17.94;58.80
59289;BME280;45056;47.602;9.886;2023-05-23T02:47:15;92848.94;;;17.92;58.52
59289;BME280;45056;47.602;9.886;2023-05-23T02:49:45;92854.94;;;17.91;58.63
59289;BME280;45056;47.602;9.886;2023-05-23T02:52:13;92863.69;;;17.89;59.05
59289;BME280;45056;47.602;9.886;2023-05-23T02:54:41;92854.41;;;17.86;59.06
59289;BME280;45056;47.602;9.886;2023-05-23T02:57:09;92860.44;;;17.85;59.19
59289;BME280;45056;47.602;9.886;2023-05-23T02:59:37;92860.16;;;17.83;59.12
59289;BME280;45056;47.602;9.886;2023-05-23T03:02:05;92858.16;;;17.83;59.19
59289;BME280;45056;47.602;9.886;2023-05-23T03:04:33;92860.66;;;17.81;59.19
59289;BME280;45056;47.602;9.886;2023-05-23T03:07:05;92862.38;;;17.79;59.13
59289;BME280;45056;47.602;9.886;2023-05-23T03:09:33;92871.13;;;17.77;59.23
59289;BME280;45056;47.602;9.886;2023-05-23T03:12:01;92872.84;;;17.74;59.18
59289;BME280;45056;47.602;9.886;2023-05-23T03:14:30;92871.06;;;17.71;59.28
59289;BME280;45056;47.602;9.886;2023-05-23T03:16:58;92869.31;;;17.68;59.30
59289;BME280;45056;47.602;9.886;2023-05-23T03:19:26;92869.03;;;17.66;59.74
59289;BME280;45056;47.602;9.886;2023-05-23T03:21:54;92869.56;;;17.65;60.09
59289;BME280;45056;47.602;9.886;2023-05-23T03:24:23;92870.28;;;17.65;59.77
59289;BME280;45056;47.602;9.886;2023-05-23T03:26:51;92869.03;;;17.66;59.70
59289;BME280;45056;47.602;9.886;2023-05-23T03:29:19;92871.53;;;17.64;59.88
59289;BME280;45056;47.602;9.886;2023-05-23T03:31:47;92867.00;;;17.61;60.12
59289;BME280;45056;47.602;9.886;2023-05-23T03:34:15;92874.28;;;17.64;59.87
59289;BME280;45056;47.602;9.886;2023-05-23T03:36:43;92878.53;;;17.65;60.12
59289;BME280;45056;47.602;9.886;2023-05-23T03:39:11;92880.06;;;17.66;60.11
59289;BME280;45056;47.602;9.886;2023-05-23T03:41:40;92881.28;;;17.65;60.02
59289;BME280;45056;47.602;9.886;2023-05-23T03:44:08;92877.50;;;17.63;59.98
59289;BME280;45056;47.602;9.886;2023-05-23T03:46:36;92887.00;;;17.62;60.26
59289;BME280;45056;47.602;9.886;2023-05-23T03:49:04;92886.53;;;17.63;60.29
59289;BME280;45056;47.602;9.886;2023-05-23T03:51:32;92887.56;;;17.66;59.98
59289;BME280;45056;47.602;9.886;2023-05-23T03:54:01;92882.81;;;17.66;60.31
59289;BME280;45056;47.602;9.886;2023-05-23T03:56:29;92884.31;;;17.67;60.34
59289;BME280;45056;47.602;9.886;2023-05-23T03:58:58;92897.34;;;17.72;60.52
59289;BME280;45056;47.602;9.886;2023-05-23T04:01:26;92889.09;;;17.72;60.52
59289;BME280;45056;47.602;9.886;2023-05-23T04:03:54;92887.84;;;17.73;60.46
59289;BME280;45056;47.602;9.886;2023-05-23T04:06:23;92888.63;;;17.74;60.44
59289;BME280;45056;47.602;9.886;2023-05-23T04:08:51;92898.84;;;17.73;60.87
59289;BME280;45056;47.602;9.886;2023-05-23T04:11:19;92896.38;;;17.76;60.43
59289;BME280;45056;47.602;9.886;2023-05-23T04:13:47;92893.88;;;17.78;60.67
59289;BME280;45056;47.602;9.886;2023-05-23T04:16:16;92897.88;;;17.77;60.69
59289;BME280;45056;47.602;9.886;2023-05-23T04:18:44;92904.16;;;17.77;60.55
59289;BME280;45056;47.602;9.886;2023-05-23T04:21:13;92897.88;;;17.77;60.65
59289;BME280;45056;47.602;9.886;2023-05-23T04:23:41;92896.38;;;17.76;60.69
59289;BME280;45056;47.602;9.886;2023-05-23T04:26:09;92900.38;;;17.74;60.82
59289;BME280;45056;47.602;9.886;2023-05-23T04:28:38;92889.34;;;17.74;60.89
59289;BME280;45056;47.602;9.886;2023-05-23T04:31:06;92892.09;;;17.74;60.73
59289;BME280;45056;47.602;9.886;2023-05-23T04:33:35;92891.63;;;17.76;60.77
59289;BME280;45056;47.602;9.886;2023-05-23T04:36:04;92889.09;;;17.72;60.66
59289;BME280;45056;47.602;9.886;2023-05-23T04:38:34;92892.63;;;17.73;60.77
59289;BME280;45056;47.602;9.886;2023-05-23T04:41:03;92890.13;;;17.75;60.80
59289;BME280;45056;47.602;9.886;2023-05-23T04:43:32;92896.38;;;17.76;60.64
59289;BME280;45056;47.602;9.886;2023-05-23T04:46:00;92886.88;;;17.77;60.58
59289;BME280;45056;47.602;9.886;2023-05-23T04:48:28;92900.41;;;17.80;60.35
59289;BME280;45056;47.602;9.886;2023-05-23T04:50:58;92897.44;;;17.84;60.37
59289;BME280;45056;47.602;9.886;2023-05-23T04:53:27;92895.97;;;17.88;60.14
59289;BME280;45056;47.602;9.886;2023-05-23T04:55:55;92890.50;;;17.94;60.12
59289;BME280;45056;47.602;9.886;2023-05-23T04:58:23;92896.13;;;18.11;60.15
59289;BME280;45056;47.602;9.886;2023-05-23T05:00:51;92900.00;;;18.31;59.40
59289;BME280;45056;47.602;9.886;2023-05-23T05:03:19;92895.31;;;18.43;59.33
59289;BME280;45056;47.602;9.886;2023-05-23T05:05:50;92903.19;;;18.73;58.50
59289;BME280;45056;47.602;9.886;2023-05-23T05:08:19;92912.66;;;19.38;56.46
59289;BME280;45056;47.602;9.886;2023-05-23T05:10:47;92909.66;;;19.93;55.05
59289;BME280;45056;47.602;9.886;2023-05-23T05:13:15;92899.88;;;20.03;53.93
59289;BME280;45056;47.602;9.886;2023-05-23T05:15:43;92907.13;;;19.95;53.70
59289;BME280;45056;47.602;9.886;2023-05-23T05:18:12;92901.88;;;19.92;54.00
59289;BME280;45056;47.602;9.886;2023-05-23T05:20:40;92904.13;;;19.82;54.20
59289;BME280;45056;47.602;9.886;2023-05-23T05:23:08;92908.16;;;19.69;54.55
59289;BME280;45056;47.602;9.886;2023-05-23T05:25:38;92902.63;;;19.58;54.68
59289;BME280;45056;47.602;9.886;2023-05-23T05:28:07;92908.41;;;19.54;54.88
59289;BME280;45056;47.602;9.886;2023-05-23T05:30:35;92902.38;;;19.50;54.93
59289;BME280;45056;47.602;9.886;2023-05-23T05:33:04;92903.88;;;19.45;55.28
59289;BME280;45056;47.602;9.886;2023-05-23T05:35:33;92909.38;;;19.40;55.50
59289;BME280;45056;47.602;9.886;2023-05-23T05:38:03;92913.88;;;19.31;55.58
59289;BME280;45056;47.602;9.886;2023-05-23T05:40:33;92911.34;;;19.16;55.71
59289;BME280;45056;47.602;9.886;2023-05-23T05:43:03;92908.56;;;19.05;56.09
59289;BME280;45056;47.602;9.886;2023-05-23T05:45:32;92911.50;;;18.96;56.32
59289;BME280;45056;47.602;9.886;2023-05-23T05:47:59;92900.97;;;18.88;56.61
59289;BME280;45056;47.602;9.886;2023-05-23T05:50:27;92908.47;;;18.82;56.83
59289;BME280;45056;47.602;9.886;2023-05-23T05:52:55;92917.47;;;18.77;56.96
59289;BME280;45056;47.602;9.886;2023-05-23T05:55:23;92905.94;;;18.73;56.83
59289;BME280;45056;47.602;9.886;2023-05-23T05:57:51;92910.69;;;18.72;57.03
59289;BME280;45056;47.602;9.886;2023-05-23T06:00:21;92914.69;;;18.71;57.24
59289;BME280;45056;47.602;9.886;2023-05-23T06:02:49;92914.69;;;18.71;57.16
59289;BME280;45056;47.602;9.886;2023-05-23T06:05:18;92916.47;;;18.74;57.40
59289;BME280;45056;47.602;9.886;2023-05-23T06:07:47;92916.50;;;18.80;57.21
59289;BME280;45056;47.602;9.886;2023-05-23T06:10:16;92912.22;;;18.85;57.36
59289;BME280;45056;47.602;9.886;2023-05-23T06:12:45;92916.25;;;18.89;56.99
59289;BME280;45056;47.602;9.886;2023-05-23T06:15:13;92915.78;;;18.91;56.81
59289;BME280;45056;47.602;9.886;2023-05-23T06:17:43;92915.25;;;18.93;56.93
59289;BME280;45056;47.602;9.886;2023-05-23T06:20:11;92920.84;;;18.98;56.94
59289;BME280;45056;47.602;9.886;2023-05-23T06:22:39;92916.09;;;19.05;56.88
59289;BME280;45056;47.602;9.886;2023-05-23T06:25:08;92914.59;;;19.09;56.61
59289;BME280;45056;47.602;9.886;2023-05-23T06:27:36;92909.34;;;19.17;56.70
59289;BME280;45056;47.602;9.886;2023-05-23T06:30:05;92914.13;;;19.28;56.37
59289;BME280;45056;47.602;9.886;2023-05-23T06:32:34;92921.19;;;19.40;55.90
59289;BME280;45056;47.602;9.886;2023-05-23T06:35:04;92918.16;;;19.50;55.84
59289;BME280;45056;47.602;9.886;2023-05-23T06:37:33;92917.41;;;19.55;56.03
59289;BME280;45056;47.602;9.886;2023-05-23T06:40:01;92921.44;;;19.71;55.90
59289;BME280;45056;47.602;9.886;2023-05-23T06:42:29;92916.16;;;19.90;55.23
59289;BME280;45056;47.602;9.886;2023-05-23T06:44:57;92921.22;;;19.97;55.40
59289;BME280;45056;47.602;9.886;2023-05-23T06:47:25;92918.19;;;19.95;55.39
59289;BME280;45056;47.602;9.886;2023-05-23T06:49:53;92919.97;;;19.93;55.32
59289;BME280;45056;47.602;9.886;2023-05-23T06:52:23;92918.91;;;19.90;55.51
59289;BME280;45056;47.602;9.886;2023-05-23T06:54:51;92916.44;;;19.86;55.76
59289;BME280;45056;47.602;9.886;2023-05-23T06:57:19;92916.44;;;19.86;55.61
59289;BME280;45056;47.602;9.886;2023-05-23T06:59:47;92912.94;;;19.92;55.53
59289;BME280;45056;47.602;9.886;2023-05-23T07:02:15;92910.41;;;19.99;55.42
59289;BME280;45056;47.602;9.886;2023-05-23T07:04:43;92918.19;;;20.07;55.13
59289;BME280;45056;47.602;9.886;2023-05-23T07:07:11;92920.44;;;20.08;55.34
59289;BME280;45056;47.602;9.886;2023-05-23T07:09:41;92921.69;;;20.07;55.33
59289;BME280;45056;47.602;9.886;2023-05-23T07:12:09;92920.94;;;20.07;55.20
59289;BME280;45056;47.602;9.886;2023-05-23T07:14:37;92934.75;;;20.07;55.50
59289;BME280;45056;47.602;9.886;2023-05-23T07:17:06;92926.72;;;20.03;55.63
59289;BME280;45056;47.602;9.886;2023-05-23T07:19:33;92940.03;;;19.99;56.05
59289;BME280;45056;47.602;9.886;2023-05-23T07:22:01;92933.25;;;19.94;56.63
59289;BME280;45056;47.602;9.886;2023-05-23T07:24:29;92934.25;;;19.91;57.30
59289;BME280;45056;47.602;9.886;2023-05-23T07:26:59;92931.22;;;19.83;57.75
59289;BME280;45056;47.602;9.886;2023-05-23T07:29:27;92941.75;;;19.79;58.22
59289;BME280;45056;47.602;9.886;2023-05-23T07:31:55;92945.50;;;19.76;58.54
59289;BME280;45056;47.602;9.886;2023-05-23T07:34:24;92940.50;;;19.69;58.76
59289;BME280;45056;47.602;9.886;2023-05-23T07:36:53;92946.28;;;19.59;58.61
59289;BME280;45056;47.602;9.886;2023-05-23T07:39:21;92939.47;;;19.49;58.42
59289;BME280;45056;47.602;9.886;2023-05-23T07:41:49;92940.47;;;19.46;58.16
59289;BME280;45056;47.602;9.886;2023-05-23T07:44:19;92948.50;;;19.44;58.32
59289;BME280;45056;47.602;9.886;2023-05-23T07:46:47;92947.75;;;19.43;58.05
59289;BME280;45056;47.602;9.886;2023-05-23T07:49:15;92952.25;;;19.41;58.21
59289;BME280;45056;47.602;9.886;2023-05-23T07:51:43;92947.25;;;19.39;58.42
59289;BME280;45056;47.602;9.886;2023-05-23T07:54:11;92953.25;;;19.38;58.46
59289;BME280;45056;47.602;9.886;2023-05-23T07:56:39;92945.22;;;19.34;58.57
59289;BME280;45056;47.602;9.886;2023-05-23T07:59:09;92951.00;;;19.36;58.59
59289;BME280;45056;47.602;9.886;2023-05-23T08:01:38;92948.25;;;19.36;58.58
59289;BME280;45056;47.602;9.886;2023-05-23T08:04:07;92955.50;;;19.34;58.47
59289;BME280;45056;47.602;9.886;2023-05-23T08:06:35;92953.00;;;19.30;58.66
59289;BME280;45056;47.602;9.886;2023-05-23T08:09:04;92958.25;;;19.28;58.65
59289;BME280;45056;47.602;9.886;2023-05-23T08:11:32;92961.25;;;19.24;58.84
59289;BME280;45056;47.602;9.886;2023-05-23T08:14:00;92958.75;;;19.21;59.29
59289;BME280;45056;47.602;9.886;2023-05-23T08:16:28;92957.22;;;19.20;59.63
59289;BME280;45056;47.602;9.886;2023-05-23T08:18:57;92963.22;;;19.18;59.64
59289;BME280;45056;47.602;9.886;2023-05-23T08:21:25;92953.19;;;19.15;59.83
59289;BME280;45056;47.602;9.886;2023-05-23T08:23:53;92953.97;;;19.15;59.74
59289;BME280;45056;47.602;9.886;2023-05-23T08:26:21;92954.22;;;19.17;59.74
59289;BME280;45056;47.602;9.886;2023-05-23T08:28:49;92959.75;;;19.23;59.71
59289;BME280;45056;47.602;9.886;2023-05-23T08:31:19;92952.75;;;19.34;59.51
59289;BME280;45056;47.602;9.886;2023-05-23T08:33:47;92957.28;;;19.42;59.39
59289;BME280;45056;47.602;9.886;2023-05-23T08:36:16;92959.56;;;19.55;59.41
59289;BME280;45056;47.602;9.886;2023-05-23T08:38:44;92966.84;;;19.70;58.92
59289;BME280;45056;47.602;9.886;2023-05-23T08:41:17;92964.09;;;19.75;58.68
59289;BME280;45056;47.602;9.886;2023-05-23T08:43:47;92961.34;;;19.75;58.63
59289;BME280;45056;47.602;9.886;2023-05-23T08:46:15;92964.09;;;19.75;58.67
59289;BME280;45056;47.602;9.886;2023-05-23T08:48:50;92958.31;;;19.79;58.84
59289;BME280;45056;47.602;9.886;2023-05-23T08:51:24;92969.63;;;19.87;58.56
59289;BME280;45056;47.602;9.886;2023-05-23T08:53:53;92968.41;;;19.94;58.54
59289;BME280;45056;47.602;9.886;2023-05-23T08:56:24;92974.41;;;19.98;58.29
59289;BME280;45056;47.602;9.886;2023-05-23T08:58:54;92961.63;;;20.00;58.32
59289;BME280;45056;47.602;9.886;2023-05-23T09:01:22;92967.66;;;20.04;58.22
59289;BME280;45056;47.602;9.886;2023-05-23T09:03:51;92970.13;;;20.08;58.24
59289;BME280;45056;47.602;9.886;2023-05-23T09:06:21;92971.41;;;20.13;58.33
59289;BME280;45056;47.602;9.886;2023-05-23T09:08:49;92967.63;;;20.16;58.31
59289;BME280;45056;47.602;9.886;2023-05-23T09:11:18;92982.69;;;20.21;57.79
59289;BME280;45056;47.602;9.886;2023-05-23T09:13:47;92976.66;;;20.22;58.09
59289;BME280;45056;47.602;9.886;2023-05-23T09:16:16;92981.94;;;20.20;58.07
59289;BME280;45056;47.602;9.886;2023-05-23T09:18:44;92978.19;;;20.17;57.98
59289;BME280;45056;47.602;9.886;2023-05-23T09:21:13;92986.72;;;20.14;58.22
59289;BME280;45056;47.602;9.886;2023-05-23T09:23:42;92981.19;;;20.14;58.41
59289;BME280;45056;47.602;9.886;2023-05-23T09:26:11;92986.22;;;20.15;58.64
59289;BME280;45056;47.602;9.886;2023-05-23T09:28:42;92987.22;;;20.18;58.53
59289;BME280;45056;47.602;9.886;2023-05-23T09:31:11;92978.69;;;20.22;58.42
59289;BME280;45056;47.602;9.886;2023-05-23T09:33:42;92981.16;;;20.25;58.64
59289;BME280;45056;47.602;9.886;2023-05-23T09:36:14;92983.94;;;20.25;58.41
59289;BME280;45056;47.602;9.886;2023-05-23T09:38:45;92973.66;;;20.26;58.33
59289;BME280;45056;47.602;9.886;2023-05-23T09:41:14;92972.63;;;20.29;57.84
59289;BME280;45056;47.602;9.886;2023-05-23T09:43:48;92961.34;;;20.32;57.73
59289;BME280;45056;47.602;9.886;2023-05-23T09:46:18;92964.84;;;20.39;57.95
59289;BME280;45056;47.602;9.886;2023-05-23T09:48:47;92967.59;;;20.44;57.76
59289;BME280;45056;47.602;9.886;2023-05-23T09:51:18;92971.34;;;20.53;57.48
59289;BME280;45056;47.602;9.886;2023-05-23T09:53:49;92968.56;;;20.58;57.24
59289;BME280;45056;47.602;9.886;2023-05-23T09:56:18;92968.06;;;20.60;56.41
59289;BME280;45056;47.602;9.886;2023-05-23T09:58:48;92963.28;;;20.60;56.43
59289;BME280;45056;47.602;9.886;2023-05-23T10:01:17;92964.28;;;20.63;56.61
59289;BME280;45056;47.602;9.886;2023-05-23T10:03:48;92973.06;;;20.67;56.58
59289;BME280;45056;47.602;9.886;2023-05-23T10:06:24;92967.78;;;20.69;56.46
59289;BME280;45056;47.602;9.886;2023-05-23T10:08:59;92972.03;;;20.70;56.91
59289;BME280;45056;47.602;9.886;2023-05-23T10:15:02;92964.81;;;20.61;59.17
59289;BME280;45056;47.602;9.886;2023-05-23T10:17:38;92975.63;;;20.54;59.54
59289;BME280;45056;47.602;9.886;2023-05-23T10:20:15;92967.84;;;20.46;60.07
59289;BME280;45056;47.602;9.886;2023-05-23T10:22:48;92970.63;;;20.41;60.61
59289;BME280;45056;47.602;9.886;2023-05-23T10:25:19;92974.16;;;20.36;61.05
59289;BME280;45056;47.602;9.886;2023-05-23T10:27:52;92965.84;;;20.30;61.31
59289;BME280;45056;47.602;9.886;2023-05-23T10:30:25;92975.91;;;20.27;61.51
59289;BME280;45056;47.602;9.886;2023-05-23T10:32:54;92972.38;;;20.27;61.57
59289;BME280;45056;47.602;9.886;2023-05-23T10:35:37;92964.84;;;20.27;61.87
59289;BME280;45056;47.602;9.886;2023-05-23T10:38:23;92968.38;;;20.28;61.24
59289;BME280;45056;47.602;9.886;2023-05-23T10:41:06;92966.34;;;20.34;61.12
59289;BME280;45056;47.602;9.886;2023-05-23T10:43:46;92960.31;;;20.41;60.77
59289;BME280;45056;47.602;9.886;2023-05-23T10:46:20;92953.50;;;20.54;60.08
59289;BME280;45056;47.602;9.886;2023-05-23T10:48:53;92955.97;;;20.69;59.25
59289;BME280;45056;47.602;9.886;2023-05-23T10:51:23;92954.69;;;20.81;58.60
59289;BME280;45056;47.602;9.886;2023-05-23T10:53:53;92955.19;;;20.85;58.34
59289;BME280;45056;47.602;9.886;2023-05-23T10:56:23;92957.94;;;20.91;58.41
59289;BME280;45056;47.602;9.886;2023-05-23T10:58:53;92953.66;;;20.96;58.03
59289;BME280;45056;47.602;9.886;2023-05-23T11:01:22;92952.63;;;20.99;57.65
59289;BME280;45056;47.602;9.886;2023-05-23T11:03:52;92945.56;;;21.03;57.57
59289;BME280;45056;47.602;9.886;2023-05-23T11:06:31;92951.06;;;21.09;57.44
59289;BME280;45056;47.602;9.886;2023-05-23T11:09:02;92941.97;;;21.14;57.00
59289;BME280;45056;47.602;9.886;2023-05-23T11:14:52;92946.63;;;21.37;55.92
59289;BME280;45056;47.602;9.886;2023-05-23T11:17:31;92944.88;;;21.39;55.69
59289;BME280;45056;47.602;9.886;2023-05-23T11:20:02;92952.09;;;21.54;55.49
59289;BME280;45056;47.602;9.886;2023-05-23T11:22:33;92955.97;;;21.75;54.94
59289;BME280;45056;47.602;9.886;2023-05-23T11:25:06;92956.91;;;21.84;54.41
59289;BME280;45056;47.602;9.886;2023-05-23T11:27:38;92940.31;;;21.84;53.71
59289;BME280;45056;47.602;9.886;2023-05-23T11:30:10;92944.09;;;21.81;53.79
59289;BME280;45056;47.602;9.886;2023-05-23T11:32:40;92940.94;;;21.71;54.25
59289;BME280;45056;47.602;9.886;2023-05-23T11:35:10;92943.72;;;21.59;54.45
59289;BME280;45056;47.602;9.886;2023-05-23T11:37:40;92947.09;;;21.46;54.18
59289;BME280;45056;47.602;9.886;2023-05-23T11:40:28;92949.16;;;21.34;53.59
59289;BME280;45056;47.602;9.886;2023-05-23T11:43:01;92949.22;;;21.29;53.97
59289;BME280;45056;47.602;9.886;2023-05-23T11:45:32;92940.44;;;21.25;54.32
59289;BME280;45056;47.602;9.886;2023-05-23T11:48:08;92941.94;;;21.26;54.17
59289;BME280;45056;47.602;9.886;2023-05-23T11:50:46;92940.38;;;21.30;54.31
59289;BME280;45056;47.602;9.886;2023-05-23T11:53:17;92942.09;;;21.39;54.42
59289;BME280;45056;47.602;9.886;2023-05-23T11:55:48;92949.84;;;21.46;53.49
59289;BME280;45056;47.602;9.886;2023-05-23T11:58:20;92943.06;;;21.47;52.67
59289;BME280;45056;47.602;9.886;2023-05-23T12:00:49;92944.56;;;21.48;52.64
59289;BME280;45056;47.602;9.886;2023-05-23T12:03:17;92939.00;;;21.54;52.45
59289;BME280;45056;47.602;9.886;2023-05-23T12:05:45;92926.84;;;21.63;52.28
59289;BME280;45056;47.602;9.886;2023-05-23T12:08:13;92937.31;;;21.82;52.17
59289;BME280;45056;47.602;9.886;2023-05-23T12:10:56;92938.94;;;22.02;51.72
59289;BME280;45056;47.602;9.886;2023-05-23T12:13:28;92966.28;;;22.11;51.86
59289;BME280;45056;47.602;9.886;2023-05-23T12:15:59;92975.09;;;22.10;51.94
59289;BME280;45056;47.602;9.886;2023-05-23T12:18:30;92974.44;;;21.98;52.16
59289;BME280;45056;47.602;9.886;2023-05-23T12:20:59;92962.22;;;21.82;52.18
59289;BME280;45056;47.602;9.886;2023-05-23T12:23:28;92951.78;;;21.63;53.02
59289;BME280;45056;47.602;9.886;2023-05-23T12:25:57;92957.66;;;21.48;53.95
59289;BME280;45056;47.602;9.886;2023-05-23T12:28:36;92949.41;;;21.37;54.71
59289;BME280;45056;47.602;9.886;2023-05-23T12:31:09;92963.78;;;21.29;55.53
59289;BME280;45056;47.602;9.886;2023-05-23T12:33:38;92964.06;;;21.26;56.48
59289;BME280;45056;47.602;9.886;2023-05-23T12:36:09;92968.09;;;21.25;57.00
59289;BME280;45056;47.602;9.886;2023-05-23T12:38:37;92951.28;;;21.23;56.44
59289;BME280;45056;47.602;9.886;2023-05-23T12:41:07;92946.25;;;21.15;56.32
59289;BME280;45056;47.602;9.886;2023-05-23T12:43:38;92945.03;;;21.11;56.64
59289;BME280;45056;47.602;9.886;2023-05-23T12:46:07;92939.75;;;21.07;57.02
59289;BME280;45056;47.602;9.886;2023-05-23T12:48:35;92933.50;;;21.07;57.70
59289;BME280;45056;47.602;9.886;2023-05-23T12:51:03;92930.44;;;21.10;58.21
59289;BME280;45056;47.602;9.886;2023-05-23T12:53:32;92933.94;;;21.16;58.22
59289;BME280;45056;47.602;9.886;2023-05-23T12:56:00;92935.44;;;21.17;58.33
59289;BME280;45056;47.602;9.886;2023-05-23T12:58:28;92936.44;;;21.20;58.25
59289;BME280;45056;47.602;9.886;2023-05-23T13:00:57;92942.41;;;21.30;58.32
59289;BME280;45056;47.602;9.886;2023-05-23T13:03:26;92951.44;;;21.36;58.10
59289;BME280;45056;47.602;9.886;2023-05-23T13:05:55;92948.44;;;21.34;56.65
59289;BME280;45056;47.602;9.886;2023-05-23T13:08:24;92942.44;;;21.24;56.39
59289;BME280;45056;47.602;9.886;2023-05-23T13:10:53;92951.06;;;21.09;57.11
59289;BME280;45056;47.602;9.886;2023-05-23T13:13:22;92946.13;;;20.90;57.50
59289;BME280;45056;47.602;9.886;2023-05-23T13:15:50;92958.22;;;20.76;58.13
59289;BME280;45056;47.602;9.886;2023-05-23T13:18:19;92941.66;;;20.65;58.75
59289;BME280;45056;47.602;9.886;2023-05-23T13:20:47;92949.19;;;20.58;59.11